Time;durP1;ratioP1;P1;durP2;ratioP2;P2;SDS_P1;SDS_P2;PMS_P1;PMS_P2;Temp;Humidity;BMP_temperature;BMP_pressure;BME280_temperature;BME280_humidity;BME280_pressure;Samples;Min_cycle;Max_cycle;Signal;HPM_P1;HPM_P2
2021/05/29 00:00:39;;;;;;;18.11;11.02;;;;;;;;;;359292;147;864968;-62
2021/05/29 00:01:41;;;;;;;16.36;10.56;;;;;;;;;;359343;147;858772;-64
2021/05/29 00:02:43;;;;;;;15.26;10.86;;;;;;;;;;364341;146;865139;-62
2021/05/29 00:03:44;;;;;;;18.59;11.30;;;;;;;;;;363248;147;857412;-61
2021/05/29 00:04:46;;;;;;;13.01;10.54;;;;;;;;;;364658;147;857387;-62
2021/05/29 00:05:47;;;;;;;15.21;10.99;;;;;;;;;;365132;147;857223;-65
2021/05/29 00:06:49;;;;;;;13.53;10.59;;;;;;;;;;361341;147;858612;-64
2021/05/29 00:07:51;;;;;;;14.19;10.63;;;;;;;;;;363381;146;857404;-62
2021/05/29 00:08:52;;;;;;;12.41;10.06;;;;;;;;;;365904;147;859111;-62
2021/05/29 00:09:54;;;;;;;13.45;10.20;;;;;;;;;;363477;147;858708;-61
2021/05/29 00:10:56;;;;;;;12.90;9.31;;;;;;;;;;361049;146;859851;-62
2021/05/29 00:11:58;;;;;;;12.85;9.09;;;;;;;;;;360458;147;865750;-62
2021/05/29 00:13:00;;;;;;;16.24;10.17;;;;;;;;;;362330;147;857464;-62
2021/05/29 00:14:02;;;;;;;17.22;10.17;;;;;;;;;;365619;146;857243;-64
2021/05/29 00:15:04;;;;;;;13.79;10.36;;;;;;;;;;362557;147;857851;-65
2021/05/29 00:16:09;;;;;;;13.55;10.47;;;;;;;;;;362037;146;859180;-63
2021/05/29 00:17:10;;;;;;;15.57;9.79;;;;;;;;;;364278;147;866138;-64
2021/05/29 00:18:12;;;;;;;12.58;9.21;;;;;;;;;;364731;147;859182;-62
2021/05/29 00:19:13;;;;;;;13.49;9.95;;;;;;;;;;360777;146;858847;-66
2021/05/29 00:20:17;;;;;;;17.49;10.09;;;;;;;;;;363904;147;857449;-62
2021/05/29 00:21:18;;;;;;;12.46;9.57;;;;;;;;;;363354;146;858139;-62
2021/05/29 00:22:20;;;;;;;14.91;10.88;;;;;;;;;;361530;147;857232;-62
2021/05/29 00:23:21;;;;;;;16.72;11.39;;;;;;;;;;359962;147;857305;-62
2021/05/29 00:24:23;;;;;;;12.36;8.01;;;;;;;;;;363090;146;857226;-64
2021/05/29 00:25:24;;;;;;;10.57;7.87;;;;;;;;;;359378;150;857173;-64
2021/05/29 00:26:28;;;;;;;9.21;7.59;;;;;;;;;;361579;147;865179;-65
2021/05/29 00:27:29;;;;;;;11.76;8.17;;;;;;;;;;364469;147;859031;-64
2021/05/29 00:28:31;;;;;;;13.08;7.33;;;;;;;;;;365004;147;865078;-64
2021/05/29 00:29:33;;;;;;;11.69;8.75;;;;;;;;;;363024;146;857406;-63
2021/05/29 00:30:35;;;;;;;12.20;8.01;;;;;;;;;;364544;147;857668;-62
2021/05/29 00:31:36;;;;;;;12.00;7.79;;;;;;;;;;353003;151;857187;-65
2021/05/29 00:32:38;;;;;;;11.59;7.99;;;;;;;;;;350695;151;857273;-62
2021/05/29 00:33:40;;;;;;;11.15;8.43;;;;;;;;;;351681;151;857376;-62
2021/05/29 00:34:41;;;;;;;14.51;8.63;;;;;;;;;;352005;150;857382;-62
2021/05/29 00:35:43;;;;;;;11.74;8.93;;;;;;;;;;364983;147;858106;-62
2021/05/29 00:36:46;;;;;;;14.94;9.31;;;;;;;;;;362436;147;859577;-62
2021/05/29 00:37:48;;;;;;;15.04;9.20;;;;;;;;;;361618;147;857334;-63
2021/05/29 00:38:50;;;;;;;14.26;9.06;;;;;;;;;;362034;147;866030;-62
2021/05/29 00:39:51;;;;;;;13.90;8.46;;;;;;;;;;362415;147;859788;-64
2021/05/29 00:40:53;;;;;;;15.79;9.74;;;;;;;;;;363930;147;857643;-63
2021/05/29 00:41:55;;;;;;;12.92;9.45;;;;;;;;;;363394;147;860603;-64
2021/05/29 00:42:56;;;;;;;13.24;9.43;;;;;;;;;;363404;146;866201;-63
2021/05/29 00:43:58;;;;;;;13.48;9.66;;;;;;;;;;364897;147;858986;-66
2021/05/29 00:45:00;;;;;;;17.61;9.53;;;;;;;;;;365071;147;858220;-64
2021/05/29 00:46:02;;;;;;;12.56;9.80;;;;;;;;;;361951;146;865079;-65
2021/05/29 00:47:04;;;;;;;13.83;9.21;;;;;;;;;;359855;147;857503;-64
2021/05/29 00:48:06;;;;;;;12.02;8.51;;;;;;;;;;365759;147;857465;-63
2021/05/29 00:49:08;;;;;;;10.85;8.64;;;;;;;;;;354481;149;857368;-64
2021/05/29 00:50:11;;;;;;;15.83;9.64;;;;;;;;;;360074;147;858096;-63
2021/05/29 00:51:12;;;;;;;12.65;9.29;;;;;;;;;;361400;146;858789;-63
2021/05/29 00:52:14;;;;;;;12.49;9.33;;;;;;;;;;360172;147;859322;-64
2021/05/29 00:53:16;;;;;;;17.24;9.65;;;;;;;;;;362559;147;857207;-64
2021/05/29 00:54:18;;;;;;;12.97;9.22;;;;;;;;;;361371;146;857331;-63
2021/05/29 00:55:20;;;;;;;16.46;9.79;;;;;;;;;;362568;147;857308;-63
2021/05/29 00:56:22;;;;;;;12.81;8.97;;;;;;;;;;363193;146;859004;-64
2021/05/29 00:57:24;;;;;;;12.41;8.85;;;;;;;;;;364804;147;859209;-62
2021/05/29 00:58:26;;;;;;;16.69;8.71;;;;;;;;;;365419;147;859338;-65
2021/05/29 00:59:27;;;;;;;10.38;8.71;;;;;;;;;;361928;146;857234;-63
2021/05/29 01:00:29;;;;;;;13.41;8.45;;;;;;;;;;361556;147;865065;-64
2021/05/29 01:01:31;;;;;;;16.02;9.54;;;;;;;;;;361206;147;857778;-63
2021/05/29 01:02:32;;;;;;;14.07;9.31;;;;;;;;;;361604;146;857419;-64
2021/05/29 01:03:37;;;;;;;10.86;8.71;;;;;;;;;;362296;147;857231;-63
2021/05/29 01:04:39;;;;;;;11.05;7.61;;;;;;;;;;361973;147;858964;-64
2021/05/29 01:05:41;;;;;;;13.97;8.23;;;;;;;;;;364544;147;858016;-64
2021/05/29 01:06:43;;;;;;;14.60;8.35;;;;;;;;;;362977;147;857270;-64
2021/05/29 01:07:46;;;;;;;12.18;8.15;;;;;;;;;;361441;146;857288;-64
2021/05/29 01:08:48;;;;;;;11.73;7.77;;;;;;;;;;357782;150;858087;-63
2021/05/29 01:09:50;;;;;;;11.41;8.40;;;;;;;;;;351045;150;857255;-64
2021/05/29 01:10:52;;;;;;;13.77;8.71;;;;;;;;;;364384;147;866737;-63
2021/05/29 01:11:54;;;;;;;14.28;9.15;;;;;;;;;;359060;147;859409;-64
2021/05/29 01:12:58;;;;;;;12.86;7.83;;;;;;;;;;363291;147;857274;-62
2021/05/29 01:14:00;;;;;;;10.71;8.21;;;;;;;;;;362838;146;857346;-65
2021/05/29 01:15:05;;;;;;;11.58;7.84;;;;;;;;;;363600;147;857865;-64
2021/05/29 01:16:52;;;;;;;11.54;7.88;;;;;;;;;;364750;147;858511;-63
2021/05/29 01:17:10;;;;;;;11.71;8.13;;;;;;;;;;349592;147;858914;-63
2021/05/29 01:18:12;;;;;;;10.29;7.39;;;;;;;;;;362895;146;859910;-63
2021/05/29 01:19:14;;;;;;;11.83;7.85;;;;;;;;;;365885;147;865094;-64
2021/05/29 01:20:17;;;;;;;9.99;7.19;;;;;;;;;;354902;147;857838;-64
2021/05/29 01:21:19;;;;;;;12.93;7.60;;;;;;;;;;358486;147;857797;-63
2021/05/29 01:22:39;;;;;;;11.28;6.65;;;;;;;;;;365194;147;858146;-64
2021/05/29 01:23:40;;;;;;;10.47;6.89;;;;;;;;;;361745;146;859964;-62
2021/05/29 01:24:42;;;;;;;11.02;7.09;;;;;;;;;;360817;147;866338;-63
2021/05/29 01:25:46;;;;;;;10.71;6.94;;;;;;;;;;364226;147;860129;-63
2021/05/29 01:26:48;;;;;;;8.24;6.47;;;;;;;;;;363986;147;857261;-63
2021/05/29 01:27:54;;;;;;;14.68;7.48;;;;;;;;;;365758;147;857929;-63
2021/05/29 01:28:57;;;;;;;11.93;6.67;;;;;;;;;;353824;150;857318;-63
2021/05/29 01:29:58;;;;;;;11.01;6.99;;;;;;;;;;363036;147;857820;-63
2021/05/29 01:31:02;;;;;;;9.53;6.77;;;;;;;;;;363185;148;857288;-63
2021/05/29 01:32:07;;;;;;;12.35;6.77;;;;;;;;;;362266;146;866801;-65
2021/05/29 01:33:09;;;;;;;10.82;6.65;;;;;;;;;;360820;147;865119;-63
2021/05/29 01:34:11;;;;;;;9.74;6.04;;;;;;;;;;363424;147;856903;-63
2021/05/29 01:35:13;;;;;;;9.59;6.28;;;;;;;;;;360446;146;857472;-63
2021/05/29 01:36:16;;;;;;;9.46;6.50;;;;;;;;;;360563;147;864989;-63
2021/05/29 01:37:18;;;;;;;12.90;6.91;;;;;;;;;;360939;146;865463;-63
2021/05/29 01:38:20;;;;;;;10.34;6.21;;;;;;;;;;363430;147;865004;-65
2021/05/29 01:39:22;;;;;;;9.85;6.71;;;;;;;;;;364004;147;857240;-66
2021/05/29 01:40:25;;;;;;;9.99;6.10;;;;;;;;;;362076;146;857216;-63
2021/05/29 01:41:26;;;;;;;9.40;6.01;;;;;;;;;;365889;147;864950;-64
2021/05/29 01:42:29;;;;;;;9.31;6.24;;;;;;;;;;364470;147;865262;-63
2021/05/29 01:43:30;;;;;;;7.54;5.73;;;;;;;;;;365180;147;857273;-63
2021/05/29 01:44:32;;;;;;;6.94;5.64;;;;;;;;;;361826;147;860236;-64
2021/05/29 01:45:34;;;;;;;10.42;5.74;;;;;;;;;;362211;146;857424;-63
2021/05/29 01:46:36;;;;;;;6.81;5.37;;;;;;;;;;360657;147;857201;-63
2021/05/29 01:47:41;;;;;;;12.51;5.58;;;;;;;;;;363675;147;857273;-63
2021/05/29 01:48:44;;;;;;;8.84;5.11;;;;;;;;;;360625;146;859142;-63
2021/05/29 01:49:46;;;;;;;8.41;5.51;;;;;;;;;;358558;148;858146;-64
2021/05/29 01:50:48;;;;;;;8.53;5.61;;;;;;;;;;357692;148;860190;-64
2021/05/29 01:51:50;;;;;;;9.25;5.16;;;;;;;;;;362384;147;864927;-64
2021/05/29 01:52:55;;;;;;;7.20;5.74;;;;;;;;;;364986;147;857372;-63
2021/05/29 01:53:57;;;;;;;6.38;5.10;;;;;;;;;;361271;146;859432;-63
2021/05/29 01:54:59;;;;;;;7.75;5.80;;;;;;;;;;363431;147;857220;-64
2021/05/29 01:56:00;;;;;;;9.54;5.80;;;;;;;;;;364485;146;859312;-64
2021/05/29 01:57:02;;;;;;;8.76;5.58;;;;;;;;;;363207;147;857388;-64
2021/05/29 01:58:03;;;;;;;7.04;4.82;;;;;;;;;;363508;147;857368;-63
2021/05/29 01:59:05;;;;;;;6.96;5.01;;;;;;;;;;363727;146;865889;-62
2021/05/29 02:00:08;;;;;;;7.01;5.05;;;;;;;;;;359752;147;866382;-63
2021/05/29 02:01:12;;;;;;;9.90;5.43;;;;;;;;;;364560;147;860409;-62
2021/05/29 02:02:13;;;;;;;7.01;5.58;;;;;;;;;;356950;149;860200;-63
2021/05/29 02:03:15;;;;;;;8.29;5.44;;;;;;;;;;364594;147;865641;-63
2021/05/29 02:04:17;;;;;;;9.75;4.94;;;;;;;;;;363629;147;860625;-63
2021/05/29 02:05:19;;;;;;;7.29;4.94;;;;;;;;;;360604;147;857166;-62
2021/05/29 02:06:23;;;;;;;9.18;5.31;;;;;;;;;;361848;147;857194;-62
2021/05/29 02:07:24;;;;;;;8.36;4.97;;;;;;;;;;364386;147;857213;-63
2021/05/29 02:08:26;;;;;;;7.95;4.96;;;;;;;;;;364191;147;857794;-63
2021/05/29 02:09:28;;;;;;;8.52;5.29;;;;;;;;;;360266;146;859646;-65
2021/05/29 02:10:31;;;;;;;7.74;5.01;;;;;;;;;;364977;147;865522;-64
2021/05/29 02:11:33;;;;;;;6.28;4.96;;;;;;;;;;365328;147;857726;-65
2021/05/29 02:12:40;;;;;;;7.67;4.87;;;;;;;;;;364664;146;859335;-63
2021/05/29 02:13:42;;;;;;;10.36;5.44;;;;;;;;;;351824;153;864931;-64
2021/05/29 02:14:43;;;;;;;6.52;5.03;;;;;;;;;;360884;146;857348;-64
2021/05/29 02:15:45;;;;;;;7.63;4.96;;;;;;;;;;363784;146;857194;-64
2021/05/29 02:16:47;;;;;;;6.65;4.97;;;;;;;;;;364444;147;857230;-64
2021/05/29 02:17:49;;;;;;;5.49;4.75;;;;;;;;;;362877;146;857418;-64
2021/05/29 02:18:51;;;;;;;6.49;4.82;;;;;;;;;;359147;150;857328;-64
2021/05/29 02:19:53;;;;;;;7.44;5.14;;;;;;;;;;363617;147;857349;-64
2021/05/29 02:21:03;;;;;;;8.04;5.06;;;;;;;;;;363070;146;858264;-64
2021/05/29 02:22:05;;;;;;;;;;;;;;;;;;367780;147;865279;-64
2021/05/29 02:23:07;;;;;;;6.59;4.79;;;;;;;;;;364632;147;859204;-64
2021/05/29 02:24:08;;;;;;;7.33;5.31;;;;;;;;;;360214;147;857448;-64
2021/05/29 02:25:10;;;;;;;8.34;4.87;;;;;;;;;;360239;147;857471;-64
2021/05/29 02:26:14;;;;;;;6.46;5.01;;;;;;;;;;364293;146;857847;-61
2021/05/29 02:27:16;;;;;;;7.17;5.63;;;;;;;;;;366014;147;858609;-63
2021/05/29 02:28:17;;;;;;;8.16;5.83;;;;;;;;;;364168;147;857191;-64
2021/05/29 02:29:19;;;;;;;7.54;5.21;;;;;;;;;;358711;149;866476;-62
2021/05/29 02:30:23;;;;;;;8.39;5.86;;;;;;;;;;360783;147;866148;-65
2021/05/29 02:31:24;;;;;;;11.44;6.65;;;;;;;;;;361744;146;857499;-64
2021/05/29 02:32:26;;;;;;;10.18;6.59;;;;;;;;;;363212;147;857798;-64
2021/05/29 02:33:27;;;;;;;8.64;6.35;;;;;;;;;;359369;147;865048;-64
2021/05/29 02:34:29;;;;;;;9.65;6.40;;;;;;;;;;364212;147;859967;-64
2021/05/29 02:35:31;;;;;;;8.78;6.71;;;;;;;;;;362863;147;860211;-64
2021/05/29 02:36:33;;;;;;;8.75;6.82;;;;;;;;;;361578;147;858815;-64
2021/05/29 02:37:35;;;;;;;9.36;6.28;;;;;;;;;;363301;147;857636;-63
2021/05/29 02:38:37;;;;;;;9.51;6.99;;;;;;;;;;362988;147;858549;-63
2021/05/29 02:39:38;;;;;;;9.91;6.49;;;;;;;;;;363326;147;857166;-64
2021/05/29 02:40:42;;;;;;;11.34;7.35;;;;;;;;;;363735;148;858259;-64
2021/05/29 02:41:43;;;;;;;9.64;6.75;;;;;;;;;;360993;147;859088;-63
2021/05/29 02:42:45;;;;;;;13.24;7.24;;;;;;;;;;363907;146;858176;-62
2021/05/29 02:43:46;;;;;;;10.35;6.89;;;;;;;;;;363391;147;857398;-60
2021/05/29 02:44:48;;;;;;;9.64;6.83;;;;;;;;;;362349;146;857441;-61
2021/05/29 02:45:50;;;;;;;10.54;7.41;;;;;;;;;;360816;146;857267;-60
2021/05/29 02:46:52;;;;;;;9.86;7.17;;;;;;;;;;361328;147;859811;-60
2021/05/29 02:47:54;;;;;;;8.13;6.95;;;;;;;;;;362739;147;857391;-62
2021/05/29 02:48:55;;;;;;;10.99;7.41;;;;;;;;;;361808;147;857255;-61
2021/05/29 02:49:57;;;;;;;10.05;7.56;;;;;;;;;;364557;147;858178;-58
2021/05/29 02:50:58;;;;;;;8.36;7.19;;;;;;;;;;363705;146;860009;-61
2021/05/29 02:52:00;;;;;;;8.54;7.34;;;;;;;;;;363227;147;865065;-61
2021/05/29 02:53:02;;;;;;;11.34;7.54;;;;;;;;;;364733;147;857155;-60
2021/05/29 02:54:04;;;;;;;16.12;8.08;;;;;;;;;;362668;147;857450;-63
2021/05/29 02:55:06;;;;;;;12.98;8.02;;;;;;;;;;360611;147;865575;-64
2021/05/29 02:56:08;;;;;;;10.15;7.33;;;;;;;;;;362863;147;858390;-63
2021/05/29 02:57:10;;;;;;;10.35;7.26;;;;;;;;;;363118;147;859545;-60
2021/05/29 02:58:12;;;;;;;12.36;8.81;;;;;;;;;;363167;147;865112;-58
2021/05/29 02:59:13;;;;;;;10.31;7.80;;;;;;;;;;363586;146;865129;-59
2021/05/29 03:00:16;;;;;;;11.00;7.69;;;;;;;;;;361973;147;857529;-62
2021/05/29 03:01:18;;;;;;;12.47;8.01;;;;;;;;;;361749;147;857353;-61
2021/05/29 03:02:19;;;;;;;10.16;8.50;;;;;;;;;;361628;146;858227;-63
2021/05/29 03:03:21;;;;;;;10.54;8.41;;;;;;;;;;360625;147;857391;-58
2021/05/29 03:04:22;;;;;;;15.96;8.83;;;;;;;;;;362049;146;857210;-61
2021/05/29 03:05:24;;;;;;;17.10;9.29;;;;;;;;;;359637;148;857190;-62
2021/05/29 03:06:27;;;;;;;15.31;9.49;;;;;;;;;;361859;147;856532;-62
2021/05/29 03:07:29;;;;;;;21.16;9.48;;;;;;;;;;362129;146;857301;-63
2021/05/29 03:08:30;;;;;;;15.74;10.29;;;;;;;;;;363680;147;858391;-64
2021/05/29 03:09:32;;;;;;;13.56;9.10;;;;;;;;;;362800;147;865329;-60
2021/05/29 03:10:35;;;;;;;14.37;9.21;;;;;;;;;;363272;147;858661;-65
2021/05/29 03:11:39;;;;;;;15.86;9.86;;;;;;;;;;364902;147;865150;-63
2021/05/29 03:12:40;;;;;;;12.91;9.51;;;;;;;;;;361867;147;859347;-60
2021/05/29 03:13:42;;;;;;;14.37;10.12;;;;;;;;;;364726;147;857857;-65
2021/05/29 03:14:44;;;;;;;14.85;9.95;;;;;;;;;;362635;146;866288;-63
2021/05/29 03:15:45;;;;;;;19.36;10.39;;;;;;;;;;362473;146;857473;-62
2021/05/29 03:16:47;;;;;;;19.85;10.23;;;;;;;;;;361974;147;857760;-62
2021/05/29 03:17:49;;;;;;;21.29;10.10;;;;;;;;;;362316;147;864925;-62
2021/05/29 03:18:50;;;;;;;25.99;9.96;;;;;;;;;;362000;147;864852;-64
2021/05/29 03:19:52;;;;;;;25.11;10.59;;;;;;;;;;361666;147;857898;-62
2021/05/29 03:20:54;;;;;;;17.50;10.30;;;;;;;;;;362579;147;857249;-61
2021/05/29 03:21:59;;;;;;;16.66;9.79;;;;;;;;;;362459;147;857342;-61
2021/05/29 03:23:01;;;;;;;15.75;9.81;;;;;;;;;;361311;147;857246;-60
2021/05/29 03:24:03;;;;;;;15.95;10.10;;;;;;;;;;363269;147;857517;-64
2021/05/29 03:25:06;;;;;;;14.35;9.74;;;;;;;;;;360898;147;866209;-62
2021/05/29 03:26:09;;;;;;;15.11;9.06;;;;;;;;;;362078;147;858381;-62
2021/05/29 03:27:16;;;;;;;14.11;9.78;;;;;;;;;;361645;146;860280;-61
2021/05/29 03:28:14;;;;;;;15.16;9.53;;;;;;;;;;358508;147;859051;-64
2021/05/29 03:29:15;;;;;;;15.16;10.00;;;;;;;;;;363469;147;859229;-61
2021/05/29 03:30:20;;;;;;;13.29;9.31;;;;;;;;;;362355;146;857561;-64
2021/05/29 03:31:22;;;;;;;14.74;9.57;;;;;;;;;;361901;147;858009;-63
2021/05/29 03:32:43;;;;;;;14.89;9.65;;;;;;;;;;362964;147;858717;-64
2021/05/29 03:33:45;;;;;;;11.72;9.33;;;;;;;;;;355425;149;864934;-63
2021/05/29 03:34:47;;;;;;;14.43;9.65;;;;;;;;;;356007;149;859036;-63
2021/05/29 03:35:48;;;;;;;10.28;7.73;;;;;;;;;;353276;149;857385;-62
2021/05/29 03:36:50;;;;;;;10.01;7.74;;;;;;;;;;353318;149;859038;-64
2021/05/29 03:37:51;;;;;;;13.13;7.90;;;;;;;;;;354710;149;865931;-63
2021/05/29 03:38:54;;;;;;;11.64;8.32;;;;;;;;;;354143;149;858339;-61
2021/05/29 03:39:56;;;;;;;10.31;7.94;;;;;;;;;;357066;149;859819;-64
2021/05/29 03:40:57;;;;;;;14.83;7.77;;;;;;;;;;352956;149;864976;-64
2021/05/29 03:41:59;;;;;;;11.79;7.97;;;;;;;;;;353248;149;865967;-61
2021/05/29 03:43:00;;;;;;;9.25;7.31;;;;;;;;;;353765;149;858163;-64
2021/05/29 03:44:04;;;;;;;8.58;6.98;;;;;;;;;;354894;149;866068;-67
2021/05/29 03:45:06;;;;;;;9.39;7.07;;;;;;;;;;354543;149;858036;-63
2021/05/29 03:46:08;;;;;;;10.76;6.58;;;;;;;;;;353714;149;859207;-64
2021/05/29 03:47:10;;;;;;;8.51;6.49;;;;;;;;;;354443;149;865751;-66
2021/05/29 03:48:11;;;;;;;13.44;6.91;;;;;;;;;;354518;149;856694;-64
2021/05/29 03:49:13;;;;;;;9.51;6.80;;;;;;;;;;353385;149;866855;-60
2021/05/29 03:50:16;;;;;;;9.31;5.81;;;;;;;;;;354760;144;856682;-62
2021/05/29 03:51:18;;;;;;;6.81;5.06;;;;;;;;;;357242;147;859120;-61
2021/05/29 03:52:20;;;;;;;9.37;6.20;;;;;;;;;;352162;149;866489;-59
2021/05/29 03:53:21;;;;;;;6.74;5.08;;;;;;;;;;352811;149;858554;-62
2021/05/29 03:54:23;;;;;;;7.69;4.54;;;;;;;;;;354262;149;857381;-63
2021/05/29 03:55:24;;;;;;;4.84;4.13;;;;;;;;;;352284;147;857316;-60
2021/05/29 03:56:26;;;;;;;4.75;4.28;;;;;;;;;;353104;149;857370;-61
2021/05/29 03:57:28;;;;;;;6.16;4.74;;;;;;;;;;353996;149;857487;-60
2021/05/29 03:58:31;;;;;;;8.15;4.78;;;;;;;;;;353890;149;857302;-60
2021/05/29 03:59:32;;;;;;;6.32;4.21;;;;;;;;;;354628;149;863753;-61
2021/05/29 04:00:34;;;;;;;7.27;4.25;;;;;;;;;;352268;149;864474;-61
2021/05/29 04:01:37;;;;;;;4.97;3.95;;;;;;;;;;352897;149;856334;-61
2021/05/29 04:02:39;;;;;;;4.87;4.13;;;;;;;;;;354857;149;863805;-61
2021/05/29 04:03:41;;;;;;;8.17;4.14;;;;;;;;;;352713;149;863765;-60
2021/05/29 04:04:42;;;;;;;4.63;3.65;;;;;;;;;;353468;149;856452;-61
2021/05/29 04:05:44;;;;;;;3.87;3.49;;;;;;;;;;355250;149;856382;-65
2021/05/29 04:06:46;;;;;;;5.31;4.22;;;;;;;;;;354633;149;856271;-64
2021/05/29 04:07:48;;;;;;;3.70;3.14;;;;;;;;;;342644;154;856306;-63
2021/05/29 04:08:50;;;;;;;8.62;3.58;;;;;;;;;;338896;155;856483;-62
2021/05/29 04:09:51;;;;;;;7.69;3.49;;;;;;;;;;334714;158;856577;-62
2021/05/29 04:10:53;;;;;;;7.00;3.58;;;;;;;;;;341464;152;856269;-63
2021/05/29 04:11:56;;;;;;;5.65;3.33;;;;;;;;;;340398;155;856371;-61
2021/05/29 04:12:58;;;;;;;4.90;3.19;;;;;;;;;;339303;155;856386;-62
2021/05/29 04:14:00;;;;;;;6.90;2.62;;;;;;;;;;341792;155;856939;-63
2021/05/29 04:15:02;;;;;;;4.05;2.90;;;;;;;;;;339668;155;863697;-60
2021/05/29 04:16:03;;;;;;;4.26;3.11;;;;;;;;;;341570;155;856673;-62
2021/05/29 04:17:05;;;;;;;6.55;2.98;;;;;;;;;;339892;155;864707;-59
2021/05/29 04:18:07;;;;;;;12.60;3.24;;;;;;;;;;340989;155;856514;-60
2021/05/29 04:19:08;;;;;;;5.44;3.01;;;;;;;;;;340528;155;856637;-59
2021/05/29 04:20:10;;;;;;;5.45;3.15;;;;;;;;;;339354;155;864305;-60
2021/05/29 04:21:12;;;;;;;3.55;3.04;;;;;;;;;;344446;152;856630;-60
2021/05/29 04:22:14;;;;;;;4.25;2.60;;;;;;;;;;346413;153;856248;-60
2021/05/29 04:23:15;;;;;;;7.16;3.06;;;;;;;;;;342032;154;856195;-62
2021/05/29 04:24:17;;;;;;;5.61;3.26;;;;;;;;;;345519;152;856873;-61
2021/05/29 04:25:19;;;;;;;8.29;3.85;;;;;;;;;;345457;152;863931;-59
2021/05/29 04:26:21;;;;;;;4.34;2.93;;;;;;;;;;346281;152;856380;-60
2021/05/29 04:27:23;;;;;;;5.71;3.23;;;;;;;;;;348636;152;863662;-59
2021/05/29 04:28:24;;;;;;;8.49;3.59;;;;;;;;;;347432;152;856402;-60
2021/05/29 04:29:26;;;;;;;3.94;3.19;;;;;;;;;;346225;152;856402;-60
2021/05/29 04:30:28;;;;;;;3.97;3.23;;;;;;;;;;346112;152;856425;-61
2021/05/29 04:31:30;;;;;;;7.23;3.61;;;;;;;;;;346844;152;863864;-59
2021/05/29 04:32:31;;;;;;;4.41;3.43;;;;;;;;;;344169;152;856356;-64
2021/05/29 04:33:33;;;;;;;8.18;3.44;;;;;;;;;;339956;155;856367;-61
2021/05/29 04:34:34;;;;;;;5.21;3.57;;;;;;;;;;339235;155;863666;-60
2021/05/29 04:35:36;;;;;;;6.26;3.47;;;;;;;;;;340403;155;863825;-61
2021/05/29 04:36:38;;;;;;;4.51;3.23;;;;;;;;;;341550;155;856246;-60
2021/05/29 04:37:39;;;;;;;4.64;3.60;;;;;;;;;;341416;155;856230;-61
2021/05/29 04:38:41;;;;;;;3.18;2.56;;;;;;;;;;341941;154;856392;-60
2021/05/29 04:39:43;;;;;;;4.84;3.22;;;;;;;;;;337891;155;856245;-61
2021/05/29 04:40:45;;;;;;;8.75;3.03;;;;;;;;;;341271;155;857037;-62
2021/05/29 04:41:47;;;;;;;5.73;3.40;;;;;;;;;;340626;156;857335;-60
2021/05/29 04:42:48;;;;;;;4.29;2.84;;;;;;;;;;341860;155;857550;-62
2021/05/29 04:43:50;;;;;;;4.58;3.34;;;;;;;;;;341365;156;857304;-61
2021/05/29 04:44:51;;;;;;;3.83;2.09;;;;;;;;;;339194;155;864822;-66
2021/05/29 04:45:53;;;;;;;2.96;2.34;;;;;;;;;;339682;152;857359;-60
2021/05/29 04:47:00;;;;;;;7.34;3.04;;;;;;;;;;341377;154;857419;-60
2021/05/29 04:47:58;;;;;;;3.47;2.97;;;;;;;;;;342986;154;866614;-61
2021/05/29 04:49:00;;;;;;;5.07;2.63;;;;;;;;;;342253;152;857338;-61
2021/05/29 04:50:02;;;;;;;4.89;2.83;;;;;;;;;;343141;154;864831;-62
2021/05/29 04:51:14;;;;;;;4.45;2.83;;;;;;;;;;345992;152;864296;-60
2021/05/29 04:52:16;;;;;;;4.68;2.71;;;;;;;;;;347934;151;856469;-63
2021/05/29 04:53:17;;;;;;;7.17;3.26;;;;;;;;;;357373;147;856225;-63
2021/05/29 04:54:19;;;;;;;6.34;2.51;;;;;;;;;;356848;147;856279;-62
2021/05/29 04:55:21;;;;;;;3.17;2.85;;;;;;;;;;357136;147;857392;-61
2021/05/29 04:56:23;;;;;;;3.60;2.80;;;;;;;;;;358886;147;856586;-61
2021/05/29 04:57:24;;;;;;;5.09;2.49;;;;;;;;;;356283;147;856715;-61
2021/05/29 04:58:26;;;;;;;5.41;2.54;;;;;;;;;;357175;147;856900;-62
2021/05/29 04:59:28;;;;;;;3.51;2.31;;;;;;;;;;357092;147;857008;-61
2021/05/29 05:00:30;;;;;;;3.24;2.45;;;;;;;;;;356436;148;863957;-61
2021/05/29 05:01:32;;;;;;;4.66;2.61;;;;;;;;;;356447;147;856425;-61
2021/05/29 05:02:34;;;;;;;4.58;2.45;;;;;;;;;;357637;147;856256;-60
2021/05/29 05:03:36;;;;;;;5.07;2.05;;;;;;;;;;356967;148;856153;-61
2021/05/29 05:04:37;;;;;;;4.54;2.49;;;;;;;;;;359351;147;856755;-61
2021/05/29 05:05:39;;;;;;;3.69;2.36;;;;;;;;;;356436;147;863770;-61
2021/05/29 05:06:43;;;;;;;2.66;2.22;;;;;;;;;;356998;147;864170;-60
2021/05/29 05:07:44;;;;;;;2.66;2.04;;;;;;;;;;357043;149;856230;-60
2021/05/29 05:08:46;;;;;;;4.37;2.00;;;;;;;;;;356696;147;864176;-60
2021/05/29 05:09:47;;;;;;;2.16;1.90;;;;;;;;;;357448;147;856809;-61
2021/05/29 05:10:49;;;;;;;6.31;2.11;;;;;;;;;;357258;148;856881;-61
2021/05/29 05:11:51;;;;;;;6.81;2.08;;;;;;;;;;358651;145;856217;-61
2021/05/29 05:12:52;;;;;;;4.48;2.25;;;;;;;;;;357083;147;863733;-61
2021/05/29 05:13:54;;;;;;;2.76;2.09;;;;;;;;;;348524;150;856862;-61
2021/05/29 05:14:56;;;;;;;1.84;1.60;;;;;;;;;;346594;152;856360;-61
2021/05/29 05:15:57;;;;;;;1.57;1.41;;;;;;;;;;348655;153;857061;-61
2021/05/29 05:16:59;;;;;;;3.79;2.36;;;;;;;;;;355618;145;856803;-62
2021/05/29 05:18:00;;;;;;;3.59;1.53;;;;;;;;;;357879;148;863672;-63
2021/05/29 05:19:02;;;;;;;2.95;1.80;;;;;;;;;;356734;147;856458;-62
2021/05/29 05:20:04;;;;;;;2.46;1.58;;;;;;;;;;357781;147;863516;-62
2021/05/29 05:21:06;;;;;;;3.65;1.27;;;;;;;;;;359142;148;863658;-62
2021/05/29 05:22:08;;;;;;;2.03;1.40;;;;;;;;;;348704;150;856421;-62
2021/05/29 05:23:09;;;;;;;2.99;1.46;;;;;;;;;;349772;150;856452;-63
2021/05/29 05:24:11;;;;;;;1.48;1.19;;;;;;;;;;357945;148;856679;-61
2021/05/29 05:25:13;;;;;;;1.76;1.26;;;;;;;;;;357931;147;863982;-61
2021/05/29 05:26:17;;;;;;;4.26;1.46;;;;;;;;;;357580;147;856291;-62
2021/05/29 05:27:18;;;;;;;2.45;1.18;;;;;;;;;;358369;148;863503;-61
2021/05/29 05:28:20;;;;;;;3.34;1.40;;;;;;;;;;357921;147;856439;-60
2021/05/29 05:29:22;;;;;;;2.55;1.22;;;;;;;;;;359496;148;856384;-61
2021/05/29 05:30:25;;;;;;;1.77;1.36;;;;;;;;;;359402;148;856346;-61
2021/05/29 05:31:27;;;;;;;2.10;1.23;;;;;;;;;;361550;145;856882;-61
2021/05/29 05:32:29;;;;;;;1.72;1.25;;;;;;;;;;356773;149;856684;-60
2021/05/29 05:33:33;;;;;;;1.89;1.12;;;;;;;;;;357938;150;856728;-61
2021/05/29 05:34:35;;;;;;;3.26;1.28;;;;;;;;;;356424;147;864084;-61
2021/05/29 05:35:37;;;;;;;2.21;1.43;;;;;;;;;;355844;148;856262;-61
2021/05/29 05:36:39;;;;;;;3.15;1.51;;;;;;;;;;352585;145;863808;-61
2021/05/29 05:37:41;;;;;;;2.79;1.74;;;;;;;;;;357317;148;856230;-61
2021/05/29 05:38:45;;;;;;;1.71;1.20;;;;;;;;;;357132;150;863956;-62
2021/05/29 05:39:46;;;;;;;1.46;1.34;;;;;;;;;;357287;147;856243;-60
2021/05/29 05:40:52;;;;;;;1.51;1.17;;;;;;;;;;359176;148;856231;-60
2021/05/29 05:41:53;;;;;;;3.83;1.17;;;;;;;;;;361109;147;856621;-62
2021/05/29 05:42:55;;;;;;;1.98;1.44;;;;;;;;;;359653;147;856905;-61
2021/05/29 05:43:56;;;;;;;2.00;1.38;;;;;;;;;;357617;148;857046;-59
2021/05/29 05:44:58;;;;;;;2.24;1.40;;;;;;;;;;359220;148;863784;-61
2021/05/29 05:45:59;;;;;;;1.81;1.11;;;;;;;;;;358196;147;856913;-60
2021/05/29 05:47:01;;;;;;;1.83;1.29;;;;;;;;;;359132;147;856600;-60
2021/05/29 05:48:03;;;;;;;2.94;1.37;;;;;;;;;;358567;147;856530;-61
2021/05/29 05:49:04;;;;;;;1.65;1.18;;;;;;;;;;358410;147;856449;-61
2021/05/29 05:50:08;;;;;;;3.06;1.20;;;;;;;;;;354107;150;863945;-62
2021/05/29 05:51:10;;;;;;;1.34;1.24;;;;;;;;;;351920;150;857847;-62
2021/05/29 05:52:12;;;;;;;3.48;1.17;;;;;;;;;;358694;147;856424;-62
2021/05/29 05:53:13;;;;;;;2.56;1.06;;;;;;;;;;358316;150;856611;-62
2021/05/29 05:54:15;;;;;;;2.20;1.19;;;;;;;;;;356995;147;856680;-62
2021/05/29 05:55:17;;;;;;;2.34;1.31;;;;;;;;;;358155;148;856939;-61
2021/05/29 05:56:26;;;;;;;2.33;1.47;;;;;;;;;;359487;147;857267;-62
2021/05/29 05:57:27;;;;;;;1.17;1.03;;;;;;;;;;357296;147;856669;-63
2021/05/29 05:58:29;;;;;;;2.09;1.26;;;;;;;;;;358317;147;856469;-61
2021/05/29 05:59:31;;;;;;;1.43;1.21;;;;;;;;;;358935;147;856400;-62
2021/05/29 06:00:33;;;;;;;3.27;1.30;;;;;;;;;;356878;148;856285;-64
2021/05/29 06:01:35;;;;;;;1.89;1.20;;;;;;;;;;358012;147;856438;-61
2021/05/29 06:02:36;;;;;;;1.58;1.19;;;;;;;;;;358228;147;856139;-61
2021/05/29 06:03:38;;;;;;;1.88;1.24;;;;;;;;;;356124;149;863726;-61
2021/05/29 06:04:39;;;;;;;2.56;1.21;;;;;;;;;;353241;150;856689;-69